South Branch, New Jersey
Current Conditions -  °F | °C
As of 2:53 PM on Monday 22 Dec 2014 (Local Time) from KSMQ Reporting Station
Haze Haze  
Wind Chill: 41°   Ceiling: 1300
Heat Index: 41°   Visibility: 5mi
Dew Point: 35°   Wind: 3mph
Humidity: 79%   Direction: 60°ENE
Pressure: 30.22"   Gusts: NA
Location:  40.5554°N, 74.6608°W
Report Text: KSMQ 221953Z AUTO 06003KT 5SM HZ OVC013 05/02 A3022 RMK AO2 SLP233 T00500017
Loading
Personal Weather Stations






























Interactive Weather Map New forecast layout! Learn more

10-Day Weather Forecast

Advertisements
Track Severe Weather on mobile